Terminal Aerodrome Forecast
Issued by NWS Sterling, VA

Current Version | Previous Version | Graphics & Text | Print | Product List | Glossary On
Versions: 1 2 3 4 5 6 7 8 9 10 11 12 13 14
163
FTUS41 KLWX 251733
TAFMRB
TAF
KMRB 251733Z 2518/2618 04012KT 2SM -RA OVC008
     FM260000 02008KT 3SM BR OVC008
     FM260800 34004KT 3SM BR OVC008
     FM261200 33004KT P6SM BKN015=

USA.gov is the U.S. government's official web portal to all federal, state and local government web resources and services.